createdAt,value
2022-12-26T00:01:38.435Z,97767.56
2022-12-26T00:04:49.558Z,97762.38
2022-12-26T00:07:03.052Z,97770.94
2022-12-26T00:09:38.857Z,97765.81
2022-12-26T00:12:13.554Z,97781.84
2022-12-26T00:14:44.317Z,97774.00
2022-12-26T00:17:15.486Z,97756.88
2022-12-26T00:19:47.888Z,97764.78
2022-12-26T00:22:20.862Z,97775.50
2022-12-26T00:24:54.677Z,97767.00
2022-12-26T00:27:30.044Z,97767.88
2022-12-26T00:30:02.516Z,97762.28
2022-12-26T00:32:32.569Z,97772.00
2022-12-26T00:37:56.297Z,97774.13
2022-12-26T00:40:25.631Z,97766.16
2022-12-26T00:43:03.861Z,97771.78
2022-12-26T00:45:41.143Z,97774.13
2022-12-26T00:48:13.104Z,97775.59
2022-12-26T00:50:45.324Z,97775.97
2022-12-26T00:53:30.424Z,97767.28
2022-12-26T00:56:02.550Z,97776.47
2022-12-26T00:58:41.023Z,97776.03
2022-12-26T01:01:14.043Z,97780.41
2022-12-26T01:03:46.088Z,97779.22
2022-12-26T01:06:17.892Z,97778.09
2022-12-26T01:08:50.475Z,97782.56
2022-12-26T01:11:42.060Z,97780.53
2022-12-26T01:14:24.793Z,97783.44
2022-12-26T01:16:55.744Z,97791.47
2022-12-26T01:19:29.526Z,97789.50
2022-12-26T01:22:00.835Z,97786.28
2022-12-26T01:24:35.843Z,97783.72
2022-12-26T01:27:05.645Z,97775.75
2022-12-26T01:29:39.890Z,97767.19
2022-12-26T01:32:11.307Z,97766.88
2022-12-26T01:34:41.814Z,97763.47
2022-12-26T01:37:14.874Z,97760.00
2022-12-26T01:39:55.339Z,97759.88
2022-12-26T01:42:27.323Z,97754.09
2022-12-26T01:45:10.677Z,97756.75
2022-12-26T01:47:44.306Z,97756.28
2022-12-26T01:50:26.022Z,97767.84
2022-12-26T01:53:28.742Z,97786.25
2022-12-26T01:56:04.032Z,97799.22
2022-12-26T01:58:38.155Z,97807.63
2022-12-26T02:01:13.507Z,97802.72
2022-12-26T02:04:03.688Z,97802.53
2022-12-26T02:06:35.198Z,97813.09
2022-12-26T02:09:12.048Z,97811.22
2022-12-26T02:11:47.027Z,97797.91
2022-12-26T02:14:20.021Z,97790.34
2022-12-26T02:17:05.094Z,97806.53
2022-12-26T02:19:55.527Z,97805.84
2022-12-26T02:23:08.687Z,97794.44
2022-12-26T02:26:01.966Z,97799.56
2022-12-26T02:29:23.337Z,97802.25
2022-12-26T02:35:09.494Z,97785.25
2022-12-26T02:37:51.919Z,97796.63
2022-12-26T02:40:50.204Z,97771.22
2022-12-26T02:43:30.913Z,97769.03
2022-12-26T02:46:27.982Z,97772.03
2022-12-26T02:49:12.804Z,97762.53
2022-12-26T02:52:15.415Z,97758.03
2022-12-26T02:55:10.622Z,97766.28
2022-12-26T02:58:08.095Z,97769.56
2022-12-26T03:00:59.657Z,97767.81
2022-12-26T03:03:51.383Z,97766.75
2022-12-26T03:06:46.850Z,97761.44
2022-12-26T03:09:36.542Z,97750.94
2022-12-26T03:12:41.355Z,97759.38
2022-12-26T03:15:18.387Z,97765.75
2022-12-26T03:20:59.193Z,97768.94
2022-12-26T03:23:34.958Z,97770.28
2022-12-26T03:26:33.722Z,97774.19
2022-12-26T03:29:24.615Z,97772.91
2022-12-26T03:31:57.599Z,97766.50
2022-12-26T03:34:32.429Z,97770.09
2022-12-26T03:37:49.075Z,97777.47
2022-12-26T03:40:46.668Z,97785.38
2022-12-26T03:43:44.735Z,97793.09
2022-12-26T03:46:50.206Z,97790.50
2022-12-26T03:49:41.230Z,97796.50
2022-12-26T03:52:34.240Z,97803.63
2022-12-26T03:55:26.009Z,97803.72
2022-12-26T03:58:20.606Z,97806.88
2022-12-26T04:01:19.349Z,97815.31
2022-12-26T04:04:32.962Z,97796.75
2022-12-26T04:07:28.422Z,97806.09
2022-12-26T04:10:30.234Z,97796.69
2022-12-26T04:13:26.428Z,97785.66
2022-12-26T04:16:35.341Z,97791.25
2022-12-26T04:19:33.711Z,97795.75
2022-12-26T04:25:50.177Z,97785.13
2022-12-26T04:28:46.227Z,97783.00
2022-12-26T04:31:45.752Z,97785.94
2022-12-26T04:34:45.039Z,97786.41
2022-12-26T04:37:41.760Z,97781.75
2022-12-26T04:41:08.774Z,97785.78
2022-12-26T04:44:00.887Z,97782.44
2022-12-26T04:46:34.796Z,97791.16
2022-12-26T04:49:24.570Z,97791.16
2022-12-26T04:52:11.599Z,97790.63
2022-12-26T04:55:35.392Z,97791.66
2022-12-26T04:58:20.087Z,97780.84
2022-12-26T05:01:18.844Z,97780.75
2022-12-26T05:04:12.387Z,97788.72
2022-12-26T05:07:01.839Z,97782.19
2022-12-26T05:09:40.966Z,97784.38
2022-12-26T05:12:13.042Z,97793.44
2022-12-26T05:14:53.946Z,97802.13
2022-12-26T05:17:48.627Z,97792.72
2022-12-26T05:20:42.957Z,97798.38
2022-12-26T05:23:38.144Z,97807.44
2022-12-26T05:26:28.118Z,97808.44
2022-12-26T05:29:07.994Z,97811.75
2022-12-26T05:31:43.742Z,97796.53
2022-12-26T05:34:21.092Z,97796.41
2022-12-26T05:37:20.677Z,97797.28
2022-12-26T05:39:52.261Z,97809.44
2022-12-26T05:42:30.742Z,97812.66
2022-12-26T05:45:12.906Z,97825.84
2022-12-26T05:47:52.187Z,97822.22
2022-12-26T05:50:46.796Z,97821.22
2022-12-26T05:53:39.394Z,97821.31
2022-12-26T05:56:38.279Z,97823.84
2022-12-26T05:59:15.273Z,97831.38
2022-12-26T06:01:54.533Z,97829.41
2022-12-26T06:04:30.475Z,97836.44
2022-12-26T06:07:09.580Z,97828.28
2022-12-26T06:09:46.921Z,97822.72
2022-12-26T06:12:28.789Z,97829.59
2022-12-26T06:18:01.599Z,97824.66
2022-12-26T06:23:36.175Z,97816.03
2022-12-26T06:26:14.537Z,97810.69
2022-12-26T06:28:54.247Z,97807.06
2022-12-26T06:34:27.412Z,97804.06
2022-12-26T06:43:07.802Z,97787.84
2022-12-26T06:48:52.370Z,97802.81
2022-12-26T06:51:43.589Z,97816.97
2022-12-26T06:54:18.084Z,97809.88
2022-12-26T06:57:16.973Z,97805.34
2022-12-26T07:00:26.681Z,97813.22
2022-12-26T07:03:06.169Z,97816.72
2022-12-26T07:06:11.629Z,97817.81
2022-12-26T07:08:53.958Z,97814.81
2022-12-26T07:11:41.094Z,97818.44
2022-12-26T07:14:32.383Z,97822.50
2022-12-26T07:17:07.722Z,97820.31
2022-12-26T07:20:07.448Z,97813.75
2022-12-26T07:22:37.761Z,97819.16
2022-12-26T07:25:11.348Z,97818.31
2022-12-26T07:28:07.755Z,97824.59
2022-12-26T07:30:46.417Z,97822.78
2022-12-26T07:33:19.473Z,97818.50
2022-12-26T07:35:51.283Z,97821.53
2022-12-26T07:38:23.152Z,97821.97
2022-12-26T07:40:59.054Z,97826.63
2022-12-26T07:43:28.146Z,97827.06
2022-12-26T07:46:26.335Z,97828.88
2022-12-26T07:49:03.422Z,97835.22
2022-12-26T07:51:47.352Z,97836.00
2022-12-26T07:54:42.441Z,97834.03
2022-12-26T07:57:47.547Z,97834.69
2022-12-26T08:00:19.153Z,97845.53
2022-12-26T08:03:08.124Z,97843.41
2022-12-26T08:05:59.871Z,97842.06
2022-12-26T08:09:03.579Z,97846.59
2022-12-26T08:11:46.116Z,97836.91
2022-12-26T08:14:44.367Z,97833.19
2022-12-26T08:17:28.591Z,97833.72
2022-12-26T08:20:07.324Z,97838.41
2022-12-26T08:22:50.399Z,97840.03
2022-12-26T08:25:51.052Z,97848.47
2022-12-26T08:28:53.774Z,97843.50
2022-12-26T08:37:51.482Z,97845.97
2022-12-26T08:41:13.698Z,97852.19
2022-12-26T08:47:08.772Z,97851.34
2022-12-26T08:50:10.204Z,97853.66
2022-12-26T08:53:10.687Z,97852.50
2022-12-26T08:56:00.618Z,97855.44
2022-12-26T08:59:16.724Z,97869.75
2022-12-26T09:01:52.383Z,97874.44
2022-12-26T09:04:22.742Z,97862.56
2022-12-26T09:07:27.348Z,97862.75
2022-12-26T09:10:01.065Z,97855.44
2022-12-26T09:12:37.424Z,97845.00
2022-12-26T09:15:35.194Z,97843.16
2022-12-26T09:18:10.056Z,97842.13
2022-12-26T09:20:43.116Z,97853.44
2022-12-26T09:23:18.164Z,97850.69
2022-12-26T09:26:14.757Z,97839.84
2022-12-26T09:28:51.937Z,97836.44
2022-12-26T09:31:28.791Z,97825.72
2022-12-26T09:34:32.667Z,97813.03
2022-12-26T09:37:04.933Z,97805.44
2022-12-26T09:39:42.420Z,97796.81
2022-12-26T09:42:27.441Z,97791.34
2022-12-26T09:45:04.622Z,97784.63
2022-12-26T09:47:36.100Z,97787.59
2022-12-26T09:50:14.808Z,97775.06
2022-12-26T09:53:14.347Z,97768.78
2022-12-26T09:55:54.920Z,97764.56
2022-12-26T09:58:51.823Z,97766.75
2022-12-26T10:01:35.035Z,97775.50
2022-12-26T10:04:12.473Z,97771.38
2022-12-26T10:07:08.049Z,97764.19
2022-12-26T10:09:48.755Z,97755.72
2022-12-26T10:12:47.305Z,97743.06
2022-12-26T10:15:38.716Z,97735.78
2022-12-26T10:18:32.806Z,97733.84
2022-12-26T10:21:18.731Z,97724.78
2022-12-26T10:23:51.173Z,97705.97
2022-12-26T10:26:24.735Z,97703.47
2022-12-26T10:29:03.730Z,97703.50
2022-12-26T10:31:39.717Z,97706.13
2022-12-26T10:34:21.462Z,97710.38
2022-12-26T10:36:56.418Z,97722.25
2022-12-26T10:39:29.468Z,97738.50
2022-12-26T10:42:03.492Z,97753.56
2022-12-26T10:44:33.275Z,97743.78
2022-12-26T10:47:31.809Z,97739.50
2022-12-26T10:50:01.345Z,97739.72
2022-12-26T10:52:34.443Z,97743.78
2022-12-26T10:55:29.684Z,97762.16
2022-12-26T10:57:54.330Z,97765.03
2022-12-26T11:00:27.206Z,97776.03
2022-12-26T11:03:18.495Z,97764.38
2022-12-26T11:06:08.118Z,97761.13
2022-12-26T11:08:44.282Z,97751.88
2022-12-26T11:11:46.273Z,97752.91
2022-12-26T11:14:33.865Z,97740.94
2022-12-26T11:17:06.901Z,97736.75
2022-12-26T11:19:40.454Z,97735.06
2022-12-26T11:22:31.425Z,97736.00
2022-12-26T11:25:17.960Z,97753.06
2022-12-26T11:27:50.550Z,97745.47
2022-12-26T11:30:27.278Z,97737.63
2022-12-26T11:33:14.229Z,97729.09
2022-12-26T11:36:06.785Z,97731.66
2022-12-26T11:38:45.955Z,97737.66
2022-12-26T11:41:33.734Z,97741.63
2022-12-26T11:44:06.870Z,97732.97
2022-12-26T11:46:48.074Z,97726.25
2022-12-26T11:49:30.304Z,97715.19
2022-12-26T11:52:27.415Z,97712.63
2022-12-26T11:55:03.287Z,97721.34
2022-12-26T11:57:35.282Z,97719.53
2022-12-26T12:00:19.412Z,97735.50
2022-12-26T12:02:51.369Z,97719.63
2022-12-26T12:05:33.161Z,97715.38
2022-12-26T12:08:18.654Z,97706.84
2022-12-26T12:11:02.084Z,97700.88
2022-12-26T12:13:45.886Z,97696.63
2022-12-26T12:16:53.891Z,97696.66
2022-12-26T12:19:31.462Z,97693.91
2022-12-26T12:22:15.136Z,97693.16
2022-12-26T12:24:58.631Z,97700.91
2022-12-26T12:27:32.234Z,97704.28
2022-12-26T12:30:20.437Z,97692.22
2022-12-26T12:33:20.592Z,97702.63
2022-12-26T12:35:59.298Z,97705.78
2022-12-26T12:38:35.669Z,97707.25
2022-12-26T12:41:21.561Z,97714.25
2022-12-26T12:43:59.334Z,97707.44
2022-12-26T12:46:34.021Z,97695.50
2022-12-26T12:49:13.515Z,97686.97
2022-12-26T12:51:50.183Z,97684.41
2022-12-26T12:54:37.608Z,97684.44
2022-12-26T12:57:13.947Z,97685.25
2022-12-26T12:59:50.792Z,97682.72
2022-12-26T13:02:37.366Z,97687.88
2022-12-26T13:05:18.201Z,97687.06
2022-12-26T13:07:52.492Z,97676.78
2022-12-26T13:10:25.789Z,97675.91
2022-12-26T13:12:56.935Z,97677.66
2022-12-26T13:15:31.512Z,97685.38
2022-12-26T13:18:04.520Z,97684.47
2022-12-26T13:20:39.219Z,97684.50
2022-12-26T13:23:29.367Z,97697.41
2022-12-26T13:26:11.633Z,97688.81
2022-12-26T13:28:51.897Z,97686.22
2022-12-26T13:31:23.659Z,97681.88
2022-12-26T13:33:52.683Z,97680.19
2022-12-26T13:36:52.569Z,97675.03
2022-12-26T13:39:34.835Z,97681.91
2022-12-26T13:42:41.473Z,97684.47
2022-12-26T13:45:59.509Z,97680.19
2022-12-26T13:49:01.561Z,97676.78
2022-12-26T13:52:05.974Z,97670.72
2022-12-26T13:54:40.872Z,97670.72
2022-12-26T13:57:40.261Z,97675.88
2022-12-26T14:00:16.923Z,97665.56
2022-12-26T14:03:18.455Z,97675.91
2022-12-26T14:06:15.104Z,97672.50
2022-12-26T14:08:57.950Z,97668.19
2022-12-26T14:11:45.169Z,97667.31
2022-12-26T14:14:26.173Z,97669.91
2022-12-26T14:17:00.467Z,97666.44
2022-12-26T14:19:44.559Z,97675.88
2022-12-26T14:22:20.429Z,97680.16
2022-12-26T14:25:02.066Z,97682.78
2022-12-26T14:27:37.041Z,97678.44
2022-12-26T14:30:19.633Z,97675.84
2022-12-26T14:33:01.701Z,97674.97
2022-12-26T14:35:37.673Z,97666.31
2022-12-26T14:38:25.610Z,97674.03
2022-12-26T14:41:06.582Z,97677.47
2022-12-26T14:43:37.776Z,97674.84
2022-12-26T14:46:49.965Z,97687.72
2022-12-26T14:49:29.267Z,97683.38
2022-12-26T14:52:41.713Z,97688.50
2022-12-26T14:55:43.733Z,97678.09
2022-12-26T14:58:41.995Z,97674.72
2022-12-26T15:01:49.617Z,97665.28
2022-12-26T15:04:41.660Z,97655.81
2022-12-26T15:07:50.587Z,97674.59
2022-12-26T15:10:50.566Z,97674.28
2022-12-26T15:14:05.781Z,97684.25
2022-12-26T15:16:52.450Z,97675.44
2022-12-26T15:19:43.455Z,97676.13
2022-12-26T15:22:49.791Z,97677.75
2022-12-26T15:25:38.320Z,97679.31
2022-12-26T15:28:33.658Z,97686.84
2022-12-26T15:31:25.361Z,97679.25
2022-12-26T15:34:01.473Z,97673.09
2022-12-26T15:36:38.057Z,97684.09
2022-12-26T15:39:21.847Z,97694.91
2022-12-26T15:41:57.283Z,97691.44
2022-12-26T15:44:30.996Z,97692.97
2022-12-26T15:47:12.912Z,97687.91
2022-12-26T15:49:56.931Z,97699.91
2022-12-26T15:52:36.322Z,97697.78
2022-12-26T15:55:32.047Z,97694.16
2022-12-26T15:58:08.679Z,97690.75
2022-12-26T16:00:50.807Z,97693.47
2022-12-26T16:03:39.520Z,97697.53
2022-12-26T16:06:22.749Z,97692.47
2022-12-26T16:09:12.712Z,97689.09
2022-12-26T16:11:51.215Z,97701.44
2022-12-26T16:14:30.239Z,97687.34
2022-12-26T16:17:23.821Z,97693.78
2022-12-26T16:19:54.281Z,97689.63
2022-12-26T16:22:47.166Z,97685.09
2022-12-26T16:25:21.429Z,97685.56
2022-12-26T16:27:57.534Z,97682.84
2022-12-26T16:30:28.517Z,97691.75
2022-12-26T16:33:00.425Z,97694.88
2022-12-26T16:35:31.118Z,97700.56
2022-12-26T16:38:04.776Z,97713.22
2022-12-26T16:40:36.227Z,97719.00
2022-12-26T16:43:06.712Z,97714.50
2022-12-26T16:45:36.973Z,97707.53
2022-12-26T16:48:10.805Z,97714.22
2022-12-26T16:50:47.629Z,97719.47
2022-12-26T16:53:23.926Z,97709.63
2022-12-26T16:55:56.176Z,97711.72
2022-12-26T16:58:30.141Z,97708.88
2022-12-26T17:01:29.692Z,97719.06
2022-12-26T17:04:02.149Z,97712.88
2022-12-26T17:06:33.882Z,97717.53
2022-12-26T17:09:08.776Z,97729.03
2022-12-26T17:11:42.272Z,97724.59
2022-12-26T17:14:21.340Z,97720.63
2022-12-26T17:17:07.195Z,97733.13
2022-12-26T17:19:39.685Z,97730.50
2022-12-26T17:22:30.316Z,97720.97
2022-12-26T17:25:27.441Z,97707.66
2022-12-26T17:28:24.056Z,97701.03
2022-12-26T17:30:54.788Z,97696.53
2022-12-26T17:33:27.066Z,97692.56
2022-12-26T17:38:49.699Z,97687.13
2022-12-26T17:41:21.856Z,97684.09
2022-12-26T17:43:58.451Z,97678.56
2022-12-26T17:46:31.629Z,97677.69
2022-12-26T17:49:01.991Z,97667.38
2022-12-26T17:51:32.783Z,97655.44
2022-12-26T17:54:07.701Z,97652.06
2022-12-26T17:56:39.142Z,97661.56
2022-12-26T17:59:19.368Z,97664.38
2022-12-26T18:01:51.897Z,97666.56
2022-12-26T18:04:23.308Z,97669.88
2022-12-26T18:06:54.922Z,97669.03
2022-12-26T18:09:37.131Z,97674.78
2022-12-26T18:12:33.842Z,97676.88
2022-12-26T18:15:06.610Z,97678.72
2022-12-26T18:17:37.431Z,97688.09
2022-12-26T18:20:09.487Z,97682.94
2022-12-26T18:22:40.292Z,97670.97
2022-12-26T18:25:14.957Z,97670.66
2022-12-26T18:27:50.362Z,97659.84
2022-12-26T18:30:21.751Z,97668.28
2022-12-26T18:32:53.349Z,97663.03
2022-12-26T18:38:16.031Z,97670.09
2022-12-26T18:40:49.760Z,97673.66
2022-12-26T18:43:45.176Z,97681.81
2022-12-26T18:46:17.224Z,97688.38
2022-12-26T18:49:11.198Z,97679.94
2022-12-26T18:51:41.240Z,97680.94
2022-12-26T18:54:11.647Z,97672.59
2022-12-26T18:56:42.803Z,97670.28
2022-12-26T18:59:18.396Z,97672.47
2022-12-26T19:01:49.272Z,97682.31
2022-12-26T19:04:20.316Z,97678.41
2022-12-26T19:06:49.999Z,97675.47
2022-12-26T19:09:19.409Z,97672.44
2022-12-26T19:11:49.944Z,97673.53
2022-12-26T19:14:24.868Z,97660.38
2022-12-26T19:16:54.296Z,97661.69
2022-12-26T19:19:26.809Z,97661.63
2022-12-26T19:21:56.179Z,97658.63
2022-12-26T19:24:30.898Z,97663.44
2022-12-26T19:27:00.713Z,97677.09
2022-12-26T19:29:34.616Z,97687.81
2022-12-26T19:32:06.915Z,97684.84
2022-12-26T19:34:41.112Z,97688.38
2022-12-26T19:37:10.919Z,97683.56
2022-12-26T19:39:41.383Z,97698.34
2022-12-26T19:42:13.063Z,97708.88
2022-12-26T19:44:44.834Z,97722.00
2022-12-26T19:47:15.149Z,97729.06
2022-12-26T19:49:45.927Z,97739.41
2022-12-26T19:52:18.889Z,97745.06
2022-12-26T19:54:48.109Z,97765.13
2022-12-26T19:57:18.359Z,97761.34
2022-12-26T19:59:50.258Z,97762.69
2022-12-26T20:02:19.158Z,97759.22
2022-12-26T20:04:49.740Z,97755.44
2022-12-26T20:07:21.996Z,97761.13
2022-12-26T20:09:59.898Z,97773.06
2022-12-26T20:12:30.267Z,97783.97
2022-12-26T20:15:03.583Z,97791.44
2022-12-26T20:20:37.028Z,97797.41
2022-12-26T20:23:09.251Z,97806.78
2022-12-26T20:25:44.427Z,97803.03
2022-12-26T20:28:20.537Z,97816.44
2022-12-26T20:31:01.427Z,97806.16
2022-12-26T20:33:31.427Z,97814.31
2022-12-26T20:36:15.512Z,97809.66
2022-12-26T20:39:02.619Z,97807.63
2022-12-26T20:41:35.069Z,97830.59
2022-12-26T20:44:04.585Z,97837.41
2022-12-26T20:46:37.627Z,97837.41
2022-12-26T20:49:18.646Z,97835.97
2022-12-26T20:51:56.717Z,97825.06
2022-12-26T20:54:32.968Z,97833.81
2022-12-26T20:57:10.984Z,97840.53
2022-12-26T20:59:42.462Z,97848.19
2022-12-26T21:02:14.032Z,97848.16
2022-12-26T21:04:45.486Z,97865.88
2022-12-26T21:07:20.697Z,97874.47
2022-12-26T21:09:50.269Z,97873.69
2022-12-26T21:12:24.404Z,97878.03
2022-12-26T21:14:55.962Z,97889.66
2022-12-26T21:17:29.867Z,97887.19
2022-12-26T21:19:58.531Z,97881.38
2022-12-26T21:22:33.357Z,97879.97
2022-12-26T21:25:02.342Z,97881.59
2022-12-26T21:27:33.686Z,97884.22
2022-12-26T21:30:07.295Z,97897.09
2022-12-26T21:32:39.170Z,97895.63
2022-12-26T21:35:08.186Z,97903.31
2022-12-26T21:37:56.977Z,97903.50
2022-12-26T21:40:27.854Z,97906.38
2022-12-26T21:42:57.548Z,97910.72
2022-12-26T21:45:26.871Z,97909.06
2022-12-26T21:47:59.263Z,97926.19
2022-12-26T21:50:31.804Z,97917.16
2022-12-26T21:53:02.674Z,97919.88
2022-12-26T21:55:37.947Z,97929.00
2022-12-26T21:58:11.196Z,97928.94
2022-12-26T22:00:46.496Z,97933.25
2022-12-26T22:03:47.689Z,97942.22
2022-12-26T22:06:24.655Z,97947.72
2022-12-26T22:08:55.017Z,97948.59
2022-12-26T22:11:42.562Z,97950.38
2022-12-26T22:14:11.620Z,97951.28
2022-12-26T22:16:40.644Z,97953.53
2022-12-26T22:19:12.172Z,97951.97
2022-12-26T22:21:44.000Z,97957.44
2022-12-26T22:24:17.006Z,97964.41
2022-12-26T22:26:46.444Z,97966.72
2022-12-26T22:29:16.920Z,97964.22
2022-12-26T22:31:49.379Z,97966.78
2022-12-26T22:34:19.892Z,97961.81
2022-12-26T22:36:50.001Z,97958.25
2022-12-26T22:39:20.640Z,97969.16
2022-12-26T22:41:50.393Z,97964.91
2022-12-26T22:44:22.590Z,97956.50
2022-12-26T22:46:51.664Z,97954.06
2022-12-26T22:49:24.016Z,97958.72
2022-12-26T22:51:53.814Z,97952.53
2022-12-26T22:54:22.619Z,97943.28
2022-12-26T22:56:55.836Z,97951.59
2022-12-26T22:59:58.104Z,97944.94
2022-12-26T23:02:16.272Z,97952.44
2022-12-26T23:04:49.728Z,97946.63
2022-12-26T23:07:23.320Z,97961.44
2022-12-26T23:09:54.103Z,97960.38
2022-12-26T23:12:40.815Z,97969.97
2022-12-26T23:15:12.813Z,97983.03
2022-12-26T23:18:03.303Z,97977.28
2022-12-26T23:20:54.938Z,97970.22
2022-12-26T23:23:25.694Z,97966.59
2022-12-26T23:25:58.483Z,97964.28
2022-12-26T23:28:45.827Z,97955.06
2022-12-26T23:31:14.691Z,97965.13
2022-12-26T23:33:44.820Z,97962.91
2022-12-26T23:36:15.170Z,97963.72
2022-12-26T23:38:44.175Z,97953.44
2022-12-26T23:41:12.808Z,97953.69
2022-12-26T23:43:42.518Z,97951.22
2022-12-26T23:46:13.547Z,97952.03
2022-12-26T23:48:46.484Z,97944.22
2022-12-26T23:51:16.727Z,97941.63
2022-12-26T23:53:47.639Z,97924.69
2022-12-26T23:56:26.937Z,97921.38
2022-12-26T23:58:57.510Z,97912.81
